Huvudsida
METAR-TAF:

METAR-TAF

Flygplatser :

Saint-Brieuc, Frankrike

latitud: 48-32N, longitud: 002-51W, höjd: 138 m

Aktuellt väderrapport

Denna rapport gjordes för 1 timme och 39 minuter sedan, klockan 21:00 UTC
Vind 6 kt från nordost, varierande mellan nord/nordost och ost
Temperatur 14°C
Fuktighet 82%
Tryck 1032 hPa
Sikt 10 km eller mer
Inga moln under 1 500 m eller inga cumulonimbus

METAR: LFRT 272100Z AUTO 05006KT 020V090 CAVOK 14/11 Q1032

Tid: 00:39 (22:39 UTC)


TAF: saknas

Aktuella väderrapporter och prognoser från 4000 flygplatser (METAR- och TAF-rapporter).

De tillgängliga stationerna syns som gula och röda prickar på kartan.

För musen över prickarna för att se namnen på stationerna.

Klicka sedan för att få väderrapporter och prognoser.

För att ändra kartan: Klicka på de gröna knapparna med ett svart kors på för att zooma in; den gröna knappen med ett streck på för att zooma ut; eller på de gröna pilarna för angränsande kartor.


METAR-TAF: